Time;durP1;ratioP1;P1;durP2;ratioP2;P2;SDS_P1;SDS_P2;PMS_P1;PMS_P2;Temp;Humidity;BMP_temperature;BMP_pressure;BME280_temperature;BME280_humidity;BME280_pressure;Samples;Min_cycle;Max_cycle;Signal;HPM_P1;HPM_P2
2021/07/02 00:01:25;;;;;;;2.75;1.65;;;;;;;18.31;58.19;101678.56;6216127;28;20284;-77
2021/07/02 00:04:29;;;;;;;1.77;1.75;;;;;;;18.35;58.30;101679.75;6215709;28;20280;-77
2021/07/02 00:07:36;;;;;;;1.73;1.73;;;;;;;18.21;59.20;101678.38;6217387;28;20197;-77
2021/07/02 00:10:42;;;;;;;3.80;1.55;;;;;;;18.26;58.59;101670.19;6217329;28;20193;-77
2021/07/02 00:13:48;;;;;;;1.90;1.80;;;;;;;18.11;59.13;101673.50;6208201;28;20527;-77
2021/07/02 00:16:52;;;;;;;2.05;1.90;;;;;;;18.01;59.43;101670.53;6217072;28;20285;-77
2021/07/02 00:19:56;;;;;;;2.47;1.83;;;;;;;18.00;59.88;101663.31;6215780;28;20253;-76
2021/07/02 00:23:03;;;;;;;3.17;1.80;;;;;;;18.05;59.80;101668.13;6215802;28;20269;-77
2021/07/02 00:26:08;;;;;;;2.03;1.83;;;;;;;17.98;59.88;101661.91;6215297;28;20441;-77
2021/07/02 00:29:13;;;;;;;1.70;1.70;;;;;;;17.96;60.27;101658.53;6215918;28;20269;-77
2021/07/02 00:32:17;;;;;;;1.98;1.95;;;;;;;17.95;60.36;101656.88;6216121;28;20225;-77
2021/07/02 00:35:21;;;;;;;1.90;1.90;;;;;;;18.02;60.22;101654.81;6214964;28;20403;-77
2021/07/02 00:38:25;;;;;;;2.15;1.83;;;;;;;17.93;60.65;101661.78;6215754;28;20469;-77
2021/07/02 00:41:31;;;;;;;2.10;2.00;;;;;;;17.88;60.55;101661.69;6197949;28;20452;-77
2021/07/02 00:44:41;;;;;;;2.58;1.90;;;;;;;17.90;60.82;101667.81;6197821;28;20280;-77
2021/07/02 00:47:46;;;;;;;1.67;1.67;;;;;;;17.97;60.81;101660.25;6215789;28;20191;-77
2021/07/02 00:50:50;;;;;;;2.05;1.95;;;;;;;18.06;60.57;101653.22;6214615;28;20582;-76
2021/07/02 00:53:55;;;;;;;1.80;1.70;;;;;;;17.93;61.22;101648.00;6214524;28;20209;-76
2021/07/02 00:57:01;;;;;;;1.70;1.70;;;;;;;18.08;60.57;101656.56;6215591;28;20220;-76
2021/07/02 01:00:08;;;;;;;1.70;1.70;;;;;;;17.84;61.65;101655.00;6214661;28;20202;-77
2021/07/02 01:03:19;;;;;;;3.42;2.10;;;;;;;17.85;61.32;101649.22;6254428;23;20431;-76
2021/07/02 01:06:24;;;;;;;1.92;1.90;;;;;;;17.95;61.51;101648.59;6262425;28;20208;-76
2021/07/02 01:09:29;;;;;;;1.63;1.58;;;;;;;17.91;61.40;101644.66;6264525;28;20223;-76
2021/07/02 01:12:35;;;;;;;2.15;1.80;;;;;;;17.97;61.18;101650.03;6263501;28;20386;-76
2021/07/02 01:15:40;;;;;;;1.83;1.67;;;;;;;17.76;62.03;101650.72;6264562;28;20252;-76
2021/07/02 01:18:49;;;;;;;1.83;1.73;;;;;;;17.70;62.12;101648.06;6245861;28;20460;-76
2021/07/02 01:21:57;;;;;;;2.10;2.00;;;;;;;17.74;62.59;101650.13;6264253;28;20189;-76
2021/07/02 01:25:07;;;;;;;3.53;1.90;;;;;;;17.69;62.52;101640.88;6245962;28;20507;-76
2021/07/02 01:28:12;;;;;;;1.80;1.80;;;;;;;17.75;62.21;101645.41;6264075;28;20195;-76
2021/07/02 01:31:18;;;;;;;1.73;1.73;;;;;;;17.87;62.02;101637.94;6264380;28;20248;-76
2021/07/02 01:34:23;;;;;;;1.65;1.65;;;;;;;17.79;62.22;101632.81;6262862;28;20415;-76
2021/07/02 01:37:30;;;;;;;1.55;1.55;;;;;;;17.96;62.16;101636.47;6262288;28;20259;-76
2021/07/02 01:40:37;;;;;;;1.80;1.80;;;;;;;17.78;62.51;101633.88;6262441;28;20303;-76
2021/07/02 01:43:41;;;;;;;1.55;1.55;;;;;;;17.64;63.38;101632.50;6261727;28;20450;-75
2021/07/02 01:46:49;;;;;;;4.25;2.00;;;;;;;17.74;63.06;101635.47;6245655;28;20272;-76
2021/07/02 01:49:54;;;;;;;1.80;1.73;;;;;;;17.58;63.69;101634.31;6261620;28;20495;-76
2021/07/02 01:53:03;;;;;;;2.15;1.70;;;;;;;17.59;63.93;101640.69;6244859;28;20202;-76
2021/07/02 01:56:10;;;;;;;1.52;1.50;;;;;;;17.58;64.17;101633.47;6245297;28;20211;-76
2021/07/02 01:59:20;;;;;;;1.63;1.58;;;;;;;17.64;63.85;101638.03;6261460;28;20201;-76
2021/07/02 02:02:32;;;;;;;1.80;1.80;;;;;;;17.46;64.75;101637.06;6244657;28;20244;-76
2021/07/02 02:05:41;;;;;;;2.65;1.88;;;;;;;17.52;64.52;101632.50;6244919;28;20388;-76
2021/07/02 02:08:48;;;;;;;1.90;1.80;;;;;;;17.48;64.62;101643.19;6245994;28;20239;-76
2021/07/02 02:11:55;;;;;;;1.98;1.88;;;;;;;17.52;64.93;101630.59;6244864;28;20518;-76
2021/07/02 02:15:07;;;;;;;1.80;1.80;;;;;;;17.49;65.13;101631.06;6260782;28;20277;-76
2021/07/02 02:18:15;;;;;;;1.83;1.73;;;;;;;17.48;65.04;101634.06;6261957;28;20208;-76
2021/07/02 02:21:22;;;;;;;2.30;2.13;;;;;;;17.43;65.51;101637.56;6245240;28;20271;-76
2021/07/02 02:24:29;;;;;;;2.05;1.95;;;;;;;17.39;65.55;101633.59;6245209;28;20200;-76
2021/07/02 02:27:34;;;;;;;2.13;1.92;;;;;;;17.42;65.68;101630.34;6244950;28;20463;-76
2021/07/02 02:30:38;;;;;;;1.95;1.80;;;;;;;17.56;65.22;101635.66;6262755;28;20252;-76
2021/07/02 02:33:45;;;;;;;1.80;1.80;;;;;;;17.48;65.48;101642.34;6263310;28;20186;-76
2021/07/02 02:36:50;;;;;;;3.90;2.00;;;;;;;17.38;66.03;101648.47;6262831;28;20254;-76
2021/07/02 02:39:56;;;;;;;1.95;1.73;;;;;;;17.45;66.07;101642.84;6260453;28;20267;-76
2021/07/02 02:43:02;;;;;;;1.83;1.83;;;;;;;17.45;65.87;101640.91;6262694;28;20192;-76
2021/07/02 02:46:07;;;;;;;1.90;1.80;;;;;;;17.46;66.10;101642.56;6261461;28;20422;-76
2021/07/02 02:49:13;;;;;;;5.22;2.17;;;;;;;17.36;66.77;101647.88;6260378;28;20417;-76
2021/07/02 02:52:18;;;;;;;4.60;1.88;;;;;;;17.27;67.07;101641.06;6261564;28;20192;-76
2021/07/02 02:55:24;;;;;;;1.90;1.80;;;;;;;17.46;66.49;101645.34;6245001;28;20267;-76
2021/07/02 02:58:29;;;;;;;2.05;1.95;;;;;;;17.38;66.88;101645.69;6260813;28;20228;-76
2021/07/02 03:01:33;;;;;;;1.88;1.63;;;;;;;17.31;67.16;101638.63;6248401;28;20270;-75
2021/07/02 03:04:39;;;;;;;3.83;2.15;;;;;;;17.37;67.04;101637.69;6260082;28;20291;-75
2021/07/02 03:07:43;;;;;;;2.00;1.92;;;;;;;17.37;67.21;101638.53;6249532;28;20211;-75
2021/07/02 03:11:07;;;;;;;1.77;1.70;;;;;;;17.48;66.81;101634.91;6249011;28;20424;-75
2021/07/02 03:14:11;;;;;;;2.15;2.05;;;;;;;17.59;66.53;101629.66;6265661;28;20283;-75
2021/07/02 03:17:15;;;;;;;1.77;1.60;;;;;;;17.66;66.67;101633.09;6267517;28;20217;-75
2021/07/02 03:20:23;;;;;;;2.20;2.10;;;;;;;17.67;66.82;101629.25;6265446;28;20275;-75
2021/07/02 03:23:28;;;;;;;2.00;1.90;;;;;;;17.54;67.28;101622.06;6266001;28;20185;-75
2021/07/02 03:26:33;;;;;;;2.05;2.05;;;;;;;17.48;67.51;101626.63;6266966;28;20185;-75
2021/07/02 03:29:38;;;;;;;2.90;1.90;;;;;;;17.55;67.17;101625.69;6249059;28;20236;-75
2021/07/02 03:32:45;;;;;;;2.20;2.10;;;;;;;17.42;68.02;101619.31;6264560;28;20239;-75
2021/07/02 03:35:52;;;;;;;2.40;2.22;;;;;;;17.42;67.95;101624.84;6248532;28;20201;-75
2021/07/02 03:39:01;;;;;;;4.18;2.05;;;;;;;17.51;67.77;101623.38;6264622;28;20475;-75
2021/07/02 03:42:07;;;;;;;1.75;1.75;;;;;;;17.47;68.12;101613.91;6264327;28;20431;-75
2021/07/02 03:45:12;;;;;;;2.13;2.08;;;;;;;17.65;67.66;101628.66;6266486;28;20192;-75
2021/07/02 03:48:16;;;;;;;2.10;2.00;;;;;;;17.73;67.54;101625.50;6264679;28;20456;-75
2021/07/02 03:51:23;;;;;;;4.30;2.00;;;;;;;17.68;67.92;101629.00;6248856;28;20223;-75
2021/07/02 03:54:27;;;;;;;4.00;2.30;;;;;;;17.83;67.76;101636.75;6265354;28;20378;-75
2021/07/02 03:57:33;;;;;;;2.00;1.90;;;;;;;17.73;68.10;101628.25;6265204;28;20442;-75
2021/07/02 04:00:37;;;;;;;3.20;2.03;;;;;;;17.83;67.71;101631.22;6266093;28;20185;-75
2021/07/02 04:03:41;;;;;;;2.85;2.17;;;;;;;17.86;67.94;101639.03;6247300;28;20486;-75
2021/07/02 04:06:46;;;;;;;1.80;1.80;;;;;;;17.89;67.95;101633.00;6264962;28;20415;-75
2021/07/02 04:09:50;;;;;;;2.25;2.15;;;;;;;18.06;67.54;101636.66;6266795;28;20189;-75
2021/07/02 04:12:55;;;;;;;1.90;1.90;;;;;;;17.98;68.07;101642.56;6265105;28;20185;-75
2021/07/02 04:15:59;;;;;;;2.10;1.98;;;;;;;18.07;67.55;101643.88;6265973;28;20248;-75
2021/07/02 04:19:04;;;;;;;2.55;2.25;;;;;;;18.06;67.68;101647.69;6264847;28;20212;-75
2021/07/02 04:22:09;;;;;;;2.40;2.30;;;;;;;18.16;67.79;101634.09;6264746;28;20185;-75
2021/07/02 04:25:14;;;;;;;2.10;2.00;;;;;;;18.23;67.99;101643.06;6265885;28;20185;-75
2021/07/02 04:28:35;;;;;;;2.42;2.17;;;;;;;18.23;68.12;101636.72;6265140;28;20201;-75
2021/07/02 04:31:39;;;;;;;2.30;2.10;;;;;;;18.28;67.95;101629.34;6265816;28;20277;-75
2021/07/02 04:34:43;;;;;;;5.05;2.35;;;;;;;18.29;67.83;101641.22;6264296;28;20220;-75
2021/07/02 04:37:47;;;;;;;3.85;2.05;;;;;;;18.33;68.08;101643.25;6264277;28;20256;-75
2021/07/02 04:40:52;;;;;;;2.70;2.60;;;;;;;18.23;68.46;101643.06;6265570;28;20192;-74
2021/07/02 04:43:58;;;;;;;3.72;2.20;;;;;;;18.28;68.20;101643.16;6264132;28;20491;-75
2021/07/02 04:47:05;;;;;;;2.53;2.42;;;;;;;18.26;68.44;101631.50;6265609;28;20193;-75
2021/07/02 04:50:11;;;;;;;3.30;2.60;;;;;;;18.35;68.55;101641.06;6264017;28;20231;-75
2021/07/02 04:53:17;;;;;;;3.42;2.30;;;;;;;18.49;68.00;101642.44;6265610;28;20228;-74
2021/07/02 04:56:22;;;;;;;3.58;2.47;;;;;;;18.62;68.27;101650.41;6263790;28;20207;-75
2021/07/02 04:59:30;;;;;;;2.53;2.30;;;;;;;18.71;67.89;101651.69;6264636;28;20280;-75
2021/07/02 05:02:34;;;;;;;2.60;2.60;;;;;;;18.74;67.97;101651.19;6263778;28;20420;-75
2021/07/02 05:05:42;;;;;;;3.83;2.50;;;;;;;18.76;68.49;101653.69;6263554;28;20524;-75
2021/07/02 05:08:46;;;;;;;2.60;2.40;;;;;;;18.88;67.53;101668.25;6264595;28;20196;-75
2021/07/02 05:11:53;;;;;;;2.50;2.40;;;;;;;18.94;67.68;101660.91;6264912;28;20185;-75
2021/07/02 05:14:58;;;;;;;2.58;2.33;;;;;;;18.94;67.52;101660.91;6264413;28;20191;-75
2021/07/02 05:18:05;;;;;;;2.80;2.60;;;;;;;18.94;67.76;101661.75;6263334;28;20243;-74
2021/07/02 05:21:10;;;;;;;2.60;2.45;;;;;;;19.10;67.42;101660.03;6263156;28;20238;-75
2021/07/02 05:24:14;;;;;;;2.40;2.30;;;;;;;19.39;67.06;101658.84;6264298;28;20189;-75
2021/07/02 05:27:18;;;;;;;3.08;2.75;;;;;;;19.72;66.83;101653.19;6264578;28;20222;-75
2021/07/02 05:30:26;;;;;;;3.08;2.65;;;;;;;20.03;65.19;101642.50;6262582;28;20587;-75
2021/07/02 05:33:30;;;;;;;3.50;2.88;;;;;;;20.32;64.59;101650.31;6264005;28;20193;-75
2021/07/02 05:36:34;;;;;;;3.08;2.88;;;;;;;20.39;64.21;101641.78;6262916;28;20440;-75
2021/07/02 05:39:38;;;;;;;3.15;3.05;;;;;;;20.58;63.85;101645.84;6262668;28;20405;-75
2021/07/02 05:42:43;;;;;;;3.35;3.00;;;;;;;20.62;63.60;101641.41;6263103;28;20185;-76
2021/07/02 05:45:48;;;;;;;3.72;2.70;;;;;;;20.74;64.20;101639.31;6263782;28;20223;-75
2021/07/02 05:48:52;;;;;;;3.13;2.85;;;;;;;20.77;63.47;101636.03;6263823;28;20228;-75
2021/07/02 05:51:56;;;;;;;3.17;2.97;;;;;;;20.77;63.81;101641.56;6263727;28;20185;-75
2021/07/02 05:55:01;;;;;;;5.78;3.10;;;;;;;20.79;64.00;101641.28;6263660;28;20195;-75
2021/07/02 05:58:08;;;;;;;3.03;2.85;;;;;;;20.89;64.40;101639.44;6262809;28;20188;-75
2021/07/02 06:01:14;;;;;;;3.33;3.03;;;;;;;20.91;63.72;101651.09;6255425;28;20241;-74
2021/07/02 06:04:19;;;;;;;3.20;2.90;;;;;;;20.98;63.64;101645.34;6255749;28;20236;-75
2021/07/02 06:07:23;;;;;;;3.50;3.20;;;;;;;21.04;63.31;101650.66;6263235;28;20216;-75
2021/07/02 06:10:27;;;;;;;3.85;2.97;;;;;;;20.96;63.61;101648.38;6244686;28;20236;-75
2021/07/02 06:13:31;;;;;;;3.05;2.95;;;;;;;20.96;64.03;101642.81;6263380;28;20247;-74
2021/07/02 06:16:37;;;;;;;5.72;3.22;;;;;;;21.11;63.69;101637.41;6262635;28;20519;-75
2021/07/02 06:19:41;;;;;;;3.40;3.10;;;;;;;21.08;64.22;101640.69;6263282;28;20219;-74
2021/07/02 06:22:46;;;;;;;3.17;3.08;;;;;;;21.08;63.88;101635.16;6262082;28;20258;-74
2021/07/02 06:25:50;;;;;;;3.58;3.05;;;;;;;21.19;64.25;101642.44;6261868;28;20527;-75
2021/07/02 06:28:54;;;;;;;5.60;2.75;;;;;;;21.23;63.72;101644.69;6262674;28;20216;-75
2021/07/02 06:32:00;;;;;;;3.58;3.20;;;;;;;21.35;64.17;101645.31;6262637;28;20195;-75
2021/07/02 06:35:05;;;;;;;6.35;3.88;;;;;;;21.36;64.11;101636.72;6262237;28;20216;-75
2021/07/02 06:38:10;;;;;;;3.83;3.22;;;;;;;21.48;65.47;101637.34;6262205;28;20254;-75
2021/07/02 06:41:17;;;;;;;4.15;3.85;;;;;;;21.62;64.67;101640.47;6260400;28;20575;-75
2021/07/02 06:44:21;;;;;;;6.43;3.33;;;;;;;21.82;64.14;101635.84;6262442;28;20185;-74
2021/07/02 06:47:26;;;;;;;5.13;3.88;;;;;;;21.83;64.30;101633.88;6261185;28;20472;-75
2021/07/02 06:50:32;;;;;;;4.68;3.95;;;;;;;21.88;65.30;101639.47;6262015;28;20189;-75
2021/07/02 06:53:38;;;;;;;4.38;3.95;;;;;;;21.94;64.60;101630.06;6262205;28;20189;-75
2021/07/02 06:57:00;;;;;;;4.68;4.15;;;;;;;22.02;64.36;101629.53;6262495;28;20263;-75
2021/07/02 07:00:06;;;;;;;4.45;3.92;;;;;;;22.23;64.30;101635.97;6260733;28;20229;-75
2021/07/02 07:03:17;;;;;;;4.25;4.10;;;;;;;22.31;64.75;101627.94;6261003;28;20259;-75
2021/07/02 07:06:21;;;;;;;4.82;4.40;;;;;;;22.39;64.31;101619.00;6260831;28;20531;-74
2021/07/02 07:09:26;;;;;;;4.38;4.05;;;;;;;22.49;63.81;101628.50;6260996;28;20477;-74
2021/07/02 07:12:30;;;;;;;4.53;4.15;;;;;;;22.54;64.70;101622.94;6262334;28;20185;-75
2021/07/02 07:15:35;;;;;;;6.10;4.38;;;;;;;22.55;63.78;101627.38;6261445;28;20184;-75
2021/07/02 07:18:40;;;;;;;4.47;4.28;;;;;;;22.65;63.88;101621.88;6260528;28;20360;-75
2021/07/02 07:21:47;;;;;;;4.47;4.30;;;;;;;22.77;63.76;101619.63;6260561;28;20458;-75
2021/07/02 07:24:51;;;;;;;4.25;4.05;;;;;;;22.80;62.78;101624.63;6261674;28;20224;-74
2021/07/02 07:27:56;;;;;;;6.00;5.60;;;;;;;22.87;63.58;101628.81;6261554;28;20266;-75
2021/07/02 07:31:00;;;;;;;4.88;4.40;;;;;;;22.91;62.70;101631.84;6261746;28;20188;-74
2021/07/02 07:34:10;;;;;;;4.63;4.43;;;;;;;22.96;62.77;101623.47;6260202;28;20192;-75
2021/07/02 07:37:18;;;;;;;4.63;4.32;;;;;;;23.02;63.10;101627.94;6261348;28;20248;-75
2021/07/02 07:40:23;;;;;;;4.88;4.70;;;;;;;23.09;62.82;101636.81;6261206;28;20213;-75
2021/07/02 07:43:27;;;;;;;4.75;4.50;;;;;;;23.11;62.57;101633.78;6261282;28;20185;-75
2021/07/02 07:46:31;;;;;;;5.07;4.70;;;;;;;23.22;62.30;101633.47;6260612;28;20252;-75
2021/07/02 07:49:37;;;;;;;4.57;4.38;;;;;;;23.21;62.76;101631.81;6261729;28;20479;-75
2021/07/02 07:52:52;;;;;;;4.80;4.38;;;;;;;23.21;62.72;101637.38;6264432;28;20195;-75
2021/07/02 07:55:56;;;;;;;4.72;4.32;;;;;;;23.35;62.65;101644.00;6265875;28;20185;-75
2021/07/02 07:59:00;;;;;;;5.05;4.75;;;;;;;23.45;62.07;101644.00;6266040;28;20216;-75
2021/07/02 08:02:05;;;;;;;4.97;4.63;;;;;;;23.45;61.76;101635.66;6265360;28;20259;-75
2021/07/02 08:05:14;;;;;;;4.97;4.82;;;;;;;23.45;62.57;101644.00;6264778;28;20239;-75
2021/07/02 08:08:18;;;;;;;5.30;4.60;;;;;;;23.59;62.03;101633.94;6265705;28;20192;-75
2021/07/02 08:11:22;;;;;;;6.90;4.90;;;;;;;23.60;61.12;101624.47;6264302;28;20462;-75
2021/07/02 08:14:26;;;;;;;5.80;5.30;;;;;;;23.71;61.49;101629.97;6264330;28;20220;-75
2021/07/02 08:17:31;;;;;;;5.70;5.30;;;;;;;23.71;61.17;101629.97;6265477;28;20335;-75
2021/07/02 08:20:38;;;;;;;5.03;4.72;;;;;;;23.72;61.16;101632.50;6264705;28;20219;-75
2021/07/02 08:23:43;;;;;;;7.38;5.43;;;;;;;23.72;60.84;101626.09;6265554;28;20221;-75
2021/07/02 08:26:48;;;;;;;6.53;5.40;;;;;;;23.82;60.21;101626.88;6265020;28;20184;-76
2021/07/02 08:29:54;;;;;;;5.07;4.88;;;;;;;23.88;60.34;101630.47;6264475;28;20248;-75
2021/07/02 08:33:01;;;;;;;5.80;5.30;;;;;;;23.77;59.88;101634.44;6263859;28;20212;-76
2021/07/02 08:36:07;;;;;;;5.35;4.95;;;;;;;23.87;60.17;101628.81;6265156;28;20196;-75
2021/07/02 08:39:11;;;;;;;5.28;5.00;;;;;;;23.94;59.42;101629.31;6265318;28;20185;-76
2021/07/02 08:42:18;;;;;;;4.90;4.60;;;;;;;23.88;58.73;101630.47;6264035;28;20535;-76
2021/07/02 08:45:23;;;;;;;5.97;5.50;;;;;;;23.87;58.75;101637.16;6263802;28;20492;-76
2021/07/02 08:48:27;;;;;;;8.27;5.43;;;;;;;23.83;58.53;101633.28;6265139;28;20185;-76
2021/07/02 08:51:33;;;;;;;5.28;4.97;;;;;;;23.83;58.53;101638.88;6264349;28;20252;-76
2021/07/02 08:54:37;;;;;;;5.43;5.10;;;;;;;23.83;57.33;101627.72;6263505;28;20453;-76
2021/07/02 08:57:41;;;;;;;5.03;4.80;;;;;;;23.88;57.16;101630.47;6263399;28;20278;-75
2021/07/02 09:00:49;;;;;;;5.47;5.25;;;;;;;23.94;56.67;101641.31;6262827;28;20240;-75
2021/07/02 09:03:53;;;;;;;4.75;4.45;;;;;;;23.87;55.15;101628.81;6249535;28;20235;-77
2021/07/02 09:07:08;;;;;;;4.57;4.38;;;;;;;23.88;54.95;101627.69;6264053;28;20248;-75
2021/07/02 09:10:13;;;;;;;4.10;4.00;;;;;;;23.92;54.72;101626.00;6264469;28;20196;-75
2021/07/02 09:13:17;;;;;;;4.80;4.50;;;;;;;23.88;54.33;101630.47;6264325;28;20189;-76
2021/07/02 09:16:25;;;;;;;4.30;4.00;;;;;;;23.86;53.02;101627.97;6262918;28;20223;-76
2021/07/02 09:19:30;;;;;;;4.57;4.18;;;;;;;23.83;52.74;101636.09;6264184;28;20185;-75
2021/07/02 09:22:43;;;;;;;3.53;3.42;;;;;;;23.81;51.44;101629.94;6262819;28;20422;-75
2021/07/02 09:25:52;;;;;;;3.15;3.15;;;;;;;23.79;51.31;101626.59;6263856;28;20216;-75
2021/07/02 09:29:14;;;;;;;3.63;3.53;;;;;;;23.85;49.36;101626.31;6263985;28;20263;-75
2021/07/02 09:32:18;;;;;;;3.40;3.20;;;;;;;23.87;50.22;101634.38;6263339;28;20189;-76
2021/07/02 09:35:29;;;;;;;3.80;3.50;;;;;;;23.88;51.02;101642.44;6263633;28;20184;-76
2021/07/02 09:38:38;;;;;;;3.58;3.20;;;;;;;23.84;49.89;101646.09;6263316;28;20185;-77
2021/07/02 09:41:42;;;;;;;3.67;3.50;;;;;;;23.66;48.84;101644.78;6264380;28;20212;-77
2021/07/02 09:45:03;;;;;;;4.03;3.30;;;;;;;23.70;49.26;101639.47;6263725;28;20184;-76
2021/07/02 09:48:13;;;;;;;3.20;3.10;;;;;;;23.79;48.09;101643.31;6263117;28;20464;-76
2021/07/02 09:51:24;;;;;;;2.92;2.83;;;;;;;23.83;47.14;101638.88;6263346;28;20307;-76
2021/07/02 09:54:30;;;;;;;2.97;2.90;;;;;;;23.78;47.30;101642.50;6264042;28;20488;-76
2021/07/02 09:57:36;;;;;;;3.45;3.25;;;;;;;23.74;48.24;101635.00;6264581;28;20185;-75
2021/07/02 10:00:43;;;;;;;3.30;3.20;;;;;;;23.82;47.92;101637.19;6263568;28;20185;-76
2021/07/02 10:03:48;;;;;;;6.10;3.03;;;;;;;23.85;47.14;101647.78;6262405;28;20236;-77
2021/07/02 10:07:13;;;;;;;3.28;3.00;;;;;;;23.78;45.65;101641.69;6262291;28;20499;-75
2021/07/02 10:10:19;;;;;;;2.90;2.80;;;;;;;23.75;45.12;101636.69;6262785;28;20354;-76
2021/07/02 10:13:26;;;;;;;2.88;2.75;;;;;;;23.74;45.26;101635.00;6261897;28;20430;-74
2021/07/02 10:16:31;;;;;;;2.40;2.40;;;;;;;23.78;44.79;101638.91;6260729;28;20258;-76
2021/07/02 10:19:35;;;;;;;3.00;2.90;;;;;;;23.88;45.27;101636.88;6262949;28;20185;-76
2021/07/02 10:22:42;;;;;;;2.67;2.67;;;;;;;23.98;46.06;101636.00;6261714;28;20562;-76
2021/07/02 10:25:53;;;;;;;7.80;5.82;;;;;;;24.05;45.48;101636.50;6262630;28;20288;-76
2021/07/02 10:28:57;;;;;;;6.60;3.10;;;;;;;24.11;44.92;101641.78;6262132;28;20425;-75
2021/07/02 10:32:02;;;;;;;4.00;3.70;;;;;;;24.17;44.53;101640.66;6262342;28;20256;-76
2021/07/02 10:35:08;;;;;;;3.08;2.92;;;;;;;24.22;45.00;101631.41;6263055;28;20200;-75
2021/07/02 10:38:13;;;;;;;3.60;2.92;;;;;;;24.23;44.92;101644.25;6263716;28;20189;-76
2021/07/02 10:41:24;;;;;;;2.97;2.58;;;;;;;24.25;44.70;101642.00;6261598;28;20382;-75
2021/07/02 10:44:28;;;;;;;3.28;3.00;;;;;;;24.12;44.63;101645.41;6262370;28;20263;-75
2021/07/02 10:47:48;;;;;;;3.25;3.15;;;;;;;24.15;45.06;101642.06;6264160;28;20220;-76
2021/07/02 10:50:53;;;;;;;3.30;3.20;;;;;;;24.11;44.75;101629.81;6261852;28;20248;-75
2021/07/02 10:54:31;;;;;;;4.10;3.00;;;;;;;24.16;44.81;101649.31;6263238;28;20252;-77
2021/07/02 10:57:52;;;;;;;2.72;2.72;;;;;;;24.27;44.92;101640.59;6262654;28;20405;-76
2021/07/02 11:01:11;;;;;;;3.15;3.05;;;;;;;24.33;44.60;101632.19;6259405;28;20264;-76
2021/07/02 11:04:31;;;;;;;3.20;3.00;;;;;;;24.41;44.53;101637.97;6254425;28;20244;-77
2021/07/02 11:07:40;;;;;;;3.30;3.20;;;;;;;24.53;44.65;101627.28;6262990;28;20250;-76
2021/07/02 11:10:58;;;;;;;3.00;3.00;;;;;;;24.58;44.02;101623.63;6262456;28;20189;-76
2021/07/02 11:14:09;;;;;;;3.15;3.00;;;;;;;24.50;43.75;101633.44;6262134;28;20189;-75
2021/07/02 11:17:24;;;;;;;3.45;3.35;;;;;;;24.41;43.63;101621.25;6261081;28;20209;-75
2021/07/02 11:20:31;;;;;;;5.00;2.97;;;;;;;24.54;44.42;101617.81;6261612;28;20185;-76
2021/07/02 11:23:42;;;;;;;3.30;3.20;;;;;;;24.68;44.27;101629.09;6244352;28;20225;-76
2021/07/02 11:26:49;;;;;;;3.63;3.42;;;;;;;24.74;45.13;101645.53;6264056;28;20194;-76
2021/07/02 11:29:55;;;;;;;3.35;3.25;;;;;;;24.83;44.47;101626.25;6266876;28;20184;-76
2021/07/02 11:33:01;;;;;;;5.35;3.33;;;;;;;24.90;43.87;101618.34;6265676;28;20193;-76
2021/07/02 11:36:14;;;;;;;3.58;3.28;;;;;;;25.03;44.51;101614.03;6266062;28;20248;-76
2021/07/02 11:39:20;;;;;;;3.80;3.17;;;;;;;24.94;43.68;101629.75;6266648;28;20217;-76
2021/07/02 11:42:27;;;;;;;3.35;3.10;;;;;;;24.93;43.86;101619.72;6265255;28;20221;-76
2021/07/02 11:45:38;;;;;;;3.60;3.50;;;;;;;24.92;43.88;101618.03;6265431;28;20184;-76
2021/07/02 11:48:43;;;;;;;3.15;3.05;;;;;;;24.96;43.72;101621.94;6266555;28;20192;-76
2021/07/02 11:51:48;;;;;;;3.30;3.00;;;;;;;24.94;43.63;101605.47;6266339;28;20267;-76
2021/07/02 11:54:53;;;;;;;3.42;3.40;;;;;;;25.04;44.27;101610.13;6265930;28;20221;-76
2021/07/02 11:58:14;;;;;;;3.67;3.50;;;;;;;25.08;43.82;101605.59;6266449;28;20186;-76
2021/07/02 12:01:20;;;;;;;3.42;3.33;;;;;;;25.11;43.67;101603.06;6266692;28;20200;-76
2021/07/02 12:04:31;;;;;;;4.93;3.75;;;;;;;25.05;43.65;101600.59;6267258;28;20240;-76
2021/07/02 12:07:47;;;;;;;3.58;3.47;;;;;;;25.06;44.16;101596.69;6266826;28;20247;-76
2021/07/02 12:10:56;;;;;;;3.50;3.33;;;;;;;25.14;44.36;101605.25;6265708;28;20249;-76
2021/07/02 12:14:02;;;;;;;3.60;3.35;;;;;;;25.19;44.38;101609.97;6265211;28;20243;-75
2021/07/02 12:17:08;;;;;;;3.55;3.45;;;;;;;25.14;44.52;101613.63;6265393;28;20185;-75
2021/07/02 12:20:14;;;;;;;3.72;3.63;;;;;;;25.18;44.84;101608.28;6266128;28;20499;-75
2021/07/02 12:23:29;;;;;;;4.15;3.85;;;;;;;25.27;44.90;101598.16;6265340;28;20209;-77
2021/07/02 12:26:50;;;;;;;3.55;3.42;;;;;;;25.29;44.28;101598.69;6265197;28;20200;-76
2021/07/02 12:29:58;;;;;;;3.22;3.20;;;;;;;25.34;44.99;101604.22;6264549;28;20409;-77
2021/07/02 12:33:02;;;;;;;4.45;3.53;;;;;;;25.52;45.04;101595.06;6265702;28;20228;-77
2021/07/02 12:36:08;;;;;;;3.67;3.58;;;;;;;25.59;44.71;101595.53;6265324;28;20230;-76
2021/07/02 12:39:13;;;;;;;3.58;3.38;;;;;;;25.59;43.98;101587.16;6264265;28;20185;-76
2021/07/02 12:42:19;;;;;;;4.10;3.90;;;;;;;25.55;43.92;101588.91;6265047;28;20193;-76
2021/07/02 12:45:25;;;;;;;6.50;3.67;;;;;;;25.45;43.96;101589.84;6264816;28;20280;-76
2021/07/02 12:48:30;;;;;;;4.07;3.90;;;;;;;25.38;43.73;101585.72;6265247;28;20256;-75
2021/07/02 12:51:35;;;;;;;3.53;3.53;;;;;;;25.45;44.73;101584.25;6263802;28;20252;-76
2021/07/02 12:54:51;;;;;;;3.83;3.53;;;;;;;25.70;43.75;101585.91;6265019;28;20256;-76
2021/07/02 12:57:57;;;;;;;3.90;3.67;;;;;;;25.67;44.38;101575.31;6264868;28;20253;-76
2021/07/02 13:01:08;;;;;;;5.75;4.20;;;;;;;25.81;44.30;101581.81;6259133;28;20211;-76
2021/07/02 13:04:12;;;;;;;4.03;3.72;;;;;;;25.85;42.67;101582.88;6255713;28;20278;-75
2021/07/02 13:07:17;;;;;;;3.60;3.40;;;;;;;25.84;42.80;101581.22;6264498;28;20189;-76
2021/07/02 13:10:29;;;;;;;3.33;3.30;;;;;;;25.83;43.06;101579.56;6264195;28;20248;-76
2021/07/02 13:13:35;;;;;;;3.10;3.10;;;;;;;25.78;42.97;101576.00;6263365;28;20437;-76
2021/07/02 13:16:49;;;;;;;3.63;3.42;;;;;;;25.99;43.02;101575.41;6245819;28;20201;-76
2021/07/02 13:19:54;;;;;;;3.72;3.63;;;;;;;25.98;41.97;101582.16;6263861;28;20185;-76
2021/07/02 13:23:02;;;;;;;4.63;3.22;;;;;;;25.93;42.95;101568.25;6264424;28;20252;-76
2021/07/02 13:26:12;;;;;;;3.03;2.97;;;;;;;25.85;41.48;101580.09;6263628;28;20195;-77
2021/07/02 13:29:16;;;;;;;3.45;3.40;;;;;;;25.98;41.17;101576.56;6263191;28;20231;-77
2021/07/02 13:32:25;;;;;;;3.55;3.40;;;;;;;26.11;41.70;101575.81;6263615;28;20217;-76
2021/07/02 13:35:29;;;;;;;2.78;2.78;;;;;;;25.89;40.30;101577.50;6246394;28;20211;-77
2021/07/02 13:38:33;;;;;;;3.83;3.70;;;;;;;25.91;41.50;101587.25;6263859;28;20184;-75
2021/07/02 13:41:39;;;;;;;2.97;2.88;;;;;;;26.00;40.23;101579.88;6263527;28;20223;-76
2021/07/02 13:44:52;;;;;;;2.83;2.72;;;;;;;26.15;39.62;101583.59;6263339;28;20213;-76
2021/07/02 13:48:06;;;;;;;2.90;2.80;;;;;;;26.48;39.03;101566.53;6263856;28;20189;-77
2021/07/02 13:51:11;;;;;;;3.10;3.00;;;;;;;27.57;37.46;101571.50;6263258;28;20265;-76
2021/07/02 13:54:17;;;;;;;3.00;2.75;;;;;;;28.62;34.48;101578.59;6263539;28;20189;-75
2021/07/02 13:57:21;;;;;;;2.60;2.50;;;;;;;29.00;33.70;101571.41;6263735;28;20321;-76
2021/07/02 14:00:25;;;;;;;2.67;2.55;;;;;;;28.72;34.12;101567.09;6263604;28;20216;-76
2021/07/02 14:03:30;;;;;;;3.47;2.60;;;;;;;28.04;35.93;101579.47;6262916;28;20237;-77
2021/07/02 14:06:35;;;;;;;2.70;2.70;;;;;;;28.64;33.61;101570.69;6262454;28;20239;-76
2021/07/02 14:09:40;;;;;;;2.88;2.88;;;;;;;29.30;33.69;101573.38;6263219;28;20185;-76
2021/07/02 14:12:45;;;;;;;2.90;2.80;;;;;;;30.20;31.83;101568.97;6262619;28;20255;-75
2021/07/02 14:15:49;;;;;;;2.63;2.50;;;;;;;30.76;31.53;101571.56;6261209;28;20204;-76
2021/07/02 14:18:55;;;;;;;3.13;2.83;;;;;;;30.55;31.55;101570.63;6262716;28;20185;-76
2021/07/02 14:22:03;;;;;;;3.00;2.80;;;;;;;29.30;33.01;101567.75;6262424;28;20228;-76
2021/07/02 14:25:09;;;;;;;3.63;3.15;;;;;;;28.37;34.24;101571.63;6261934;28;20216;-77
2021/07/02 14:28:13;;;;;;;3.20;3.00;;;;;;;28.20;35.32;101575.13;6262807;28;20185;-76